Time;durP1;ratioP1;P1;durP2;ratioP2;P2;SDS_P1;SDS_P2;PMS_P1;PMS_P2;Temp;Humidity;BMP_temperature;BMP_pressure;BME280_temperature;BME280_humidity;BME280_pressure;Samples;Min_cycle;Max_cycle;Signal;HPM_P1;HPM_P2
2021/07/16 00:00:21;;;;;;;25.48;11.20;;;;;;;20.55;69.53;100701.66;1844474;78;21122;-62
2021/07/16 00:02:52;;;;;;;27.73;12.03;;;;;;;20.56;69.37;100703.84;1844484;78;21114;-62
2021/07/16 00:05:21;;;;;;;22.02;9.10;;;;;;;20.56;69.34;100697.16;1844577;78;21021;-62
2021/07/16 00:07:50;;;;;;;21.82;7.72;;;;;;;20.53;69.43;100700.10;1844534;78;21154;-62
2021/07/16 00:10:21;;;;;;;18.45;7.87;;;;;;;20.50;69.35;100692.32;1844493;77;21072;-62
2021/07/16 00:12:51;;;;;;;27.95;8.38;;;;;;;20.48;69.32;100695.61;1844337;78;21044;-62
2021/07/16 00:15:21;;;;;;;25.57;8.90;;;;;;;20.45;69.72;100698.02;1844513;78;21053;-62
2021/07/16 00:17:50;;;;;;;23.05;8.23;;;;;;;20.41;70.03;100694.75;1844557;78;21462;-62
2021/07/16 00:20:19;;;;;;;28.12;8.10;;;;;;;20.35;70.41;100693.08;1844482;78;21122;-62
2021/07/16 00:22:48;;;;;;;17.37;6.97;;;;;;;20.29;70.58;100690.42;1844687;78;21068;-62
2021/07/16 00:25:17;;;;;;;23.45;7.37;;;;;;;20.21;70.78;100691.50;1844357;77;21127;-63
2021/07/16 00:27:46;;;;;;;22.07;6.90;;;;;;;20.17;70.63;100692.23;1844479;76;21100;-62
2021/07/16 00:30:15;;;;;;;21.30;6.90;;;;;;;20.16;70.70;100692.36;1844470;78;21608;-62
2021/07/16 00:32:44;;;;;;;14.28;6.83;;;;;;;20.15;70.54;100697.36;1844460;78;21045;-62
2021/07/16 00:35:13;;;;;;;18.10;6.87;;;;;;;20.13;70.46;100695.30;1844423;78;21068;-62
2021/07/16 00:37:42;;;;;;;14.63;6.10;;;;;;;20.09;70.50;100697.86;1844437;78;21017;-63
2021/07/16 00:40:12;;;;;;;13.62;5.50;;;;;;;20.05;70.57;100701.26;1844622;77;21064;-62
2021/07/16 00:42:42;;;;;;;21.23;6.25;;;;;;;20.02;70.45;100706.34;1844549;78;21037;-62
2021/07/16 00:45:13;;;;;;;28.15;13.28;;;;;;;19.99;70.56;100710.61;1844530;78;21107;-62
2021/07/16 00:47:43;;;;;;;81.28;34.27;;;;;;;19.96;70.80;100710.01;1844478;78;21495;-62
2021/07/16 00:50:15;;;;;;;48.00;23.25;;;;;;;19.89;71.10;100705.63;1844410;78;21119;-63
2021/07/16 00:52:46;;;;;;;24.43;11.15;;;;;;;19.84;71.42;100703.79;1844558;77;21103;-62
2021/07/16 00:55:16;;;;;;;18.95;7.10;;;;;;;19.84;71.08;100703.79;1844537;78;21053;-62
2021/07/16 00:57:45;;;;;;;15.28;6.65;;;;;;;19.78;71.47;100699.78;1844589;78;21227;-62
2021/07/16 01:00:15;;;;;;;19.10;7.97;;;;;;;19.68;71.73;100711.65;1844608;78;21029;-62
2021/07/16 01:02:44;;;;;;;20.62;7.47;;;;;;;19.63;71.58;100715.64;1844448;78;21044;-62
2021/07/16 01:05:15;;;;;;;19.50;7.58;;;;;;;19.57;72.07;100712.97;1844457;78;21103;-62
2021/07/16 01:07:47;;;;;;;22.60;7.95;;;;;;;19.58;72.31;100718.66;1844453;78;21115;-62
2021/07/16 01:10:17;;;;;;;21.33;7.10;;;;;;;19.59;72.37;100719.03;1844458;78;21535;-62
2021/07/16 01:12:56;;;;;;;17.50;7.30;;;;;;;19.59;72.40;100721.71;1844424;78;21652;-62
2021/07/16 01:15:19;;;;;;;15.95;6.12;;;;;;;19.57;72.61;100723.65;1843830;77;21076;-63
2021/07/16 01:17:48;;;;;;;17.77;8.25;;;;;;;19.55;72.60;100723.38;1844588;78;21044;-62
2021/07/16 01:20:20;;;;;;;24.90;12.30;;;;;;;19.51;72.77;100729.94;1844470;78;21053;-62
2021/07/16 01:22:49;;;;;;;24.63;10.55;;;;;;;19.44;73.21;100736.22;1844475;78;21053;-62
2021/07/16 01:25:20;;;;;;;18.70;9.13;;;;;;;19.40;73.08;100738.77;1844470;78;21146;-62
2021/07/16 01:27:50;;;;;;;20.68;8.28;;;;;;;19.41;72.71;100739.14;1844371;78;21111;-63
2021/07/16 01:30:22;;;;;;;16.37;6.53;;;;;;;19.37;73.14;100740.35;1844499;78;21053;-62
2021/07/16 01:32:51;;;;;;;17.17;6.55;;;;;;;19.35;72.83;100743.13;1844468;78;21111;-62
2021/07/16 01:35:21;;;;;;;22.65;6.58;;;;;;;19.35;72.73;100744.93;1862247;77;21523;-62
2021/07/16 01:37:50;;;;;;;17.82;7.03;;;;;;;19.33;72.79;100754.88;1865318;77;21556;-62
2021/07/16 01:40:21;;;;;;;17.70;6.67;;;;;;;19.32;72.54;100753.19;1865212;77;21548;-63
2021/07/16 01:42:56;;;;;;;15.78;6.75;;;;;;;19.32;72.54;100755.86;1865444;77;21024;-62
2021/07/16 01:45:30;;;;;;;22.05;8.60;;;;;;;19.28;72.83;100748.08;1865348;77;21593;-62
2021/07/16 01:48:01;;;;;;;27.77;10.50;;;;;;;19.26;72.72;100755.35;1865337;77;21076;-62
2021/07/16 01:50:32;;;;;;;21.48;11.57;;;;;;;19.22;73.29;100753.05;1865150;77;21479;-62
2021/07/16 01:53:00;;;;;;;18.07;8.85;;;;;;;19.16;73.52;100753.48;1865338;77;21044;-62
2021/07/16 01:55:31;;;;;;;24.95;7.08;;;;;;;19.12;73.58;100756.86;1865289;77;21071;-62
2021/07/16 01:58:01;;;;;;;18.00;7.83;;;;;;;19.10;73.56;100759.64;1865397;77;21113;-62
2021/07/16 02:00:33;;;;;;;17.70;7.17;;;;;;;19.04;73.66;100753.44;1865295;76;21495;-62
2021/07/16 02:03:04;;;;;;;22.10;7.20;;;;;;;18.99;73.90;100748.92;1864769;77;21146;-63
2021/07/16 02:05:33;;;;;;;17.32;7.35;;;;;;;18.95;73.97;100746.61;1865275;76;21201;-62
2021/07/16 02:08:05;;;;;;;15.25;6.42;;;;;;;18.91;73.96;100749.98;1865296;76;21556;-62
2021/07/16 02:10:34;;;;;;;20.05;7.15;;;;;;;18.86;74.31;100744.97;1865419;77;21455;-62
2021/07/16 02:13:04;;;;;;;22.80;7.72;;;;;;;18.84;74.50;100744.23;1865313;77;21023;-62
2021/07/16 02:15:35;;;;;;;21.97;7.05;;;;;;;18.85;74.36;100741.95;1865305;76;21102;-62
2021/07/16 02:18:04;;;;;;;15.98;7.37;;;;;;;18.88;74.11;100748.87;1865365;76;21059;-62
2021/07/16 02:20:35;;;;;;;24.32;7.80;;;;;;;18.87;73.94;100750.69;1865332;77;21137;-62
2021/07/16 02:23:07;;;;;;;16.75;6.67;;;;;;;18.88;74.24;100744.87;1865458;77;21117;-62
2021/07/16 02:25:35;;;;;;;22.77;7.67;;;;;;;18.88;74.35;100746.20;1865060;77;21127;-62
2021/07/16 02:28:09;;;;;;;20.00;6.30;;;;;;;18.89;74.40;100747.42;1865416;77;21068;-63
2021/07/16 02:30:38;;;;;;;16.77;6.78;;;;;;;18.98;74.26;100750.36;1865334;77;21542;-62
2021/07/16 02:33:07;;;;;;;20.27;6.60;;;;;;;19.05;73.97;100745.81;1865326;77;21145;-62
2021/07/16 02:35:36;;;;;;;10.05;5.78;;;;;;;19.18;73.84;100747.55;1865171;77;21143;-62
2021/07/16 02:38:06;;;;;;;21.30;6.58;;;;;;;19.33;73.51;100746.87;1865277;76;21490;-62
2021/07/16 02:40:36;;;;;;;20.65;6.62;;;;;;;19.46;73.04;100752.52;1865281;77;21019;-63
2021/07/16 02:43:06;;;;;;;13.40;5.87;;;;;;;19.57;72.54;100758.37;1865238;77;21561;-62
2021/07/16 02:45:35;;;;;;;18.10;5.55;;;;;;;19.63;72.21;100753.88;1865394;77;21040;-62
2021/07/16 02:48:05;;;;;;;16.15;5.95;;;;;;;19.76;71.92;100759.66;1865413;77;21036;-62
2021/07/16 02:50:36;;;;;;;15.10;6.08;;;;;;;19.82;71.69;100763.17;1865389;77;21092;-62
2021/07/16 02:53:07;;;;;;;15.90;6.12;;;;;;;19.91;71.47;100766.47;1865268;76;21055;-63
2021/07/16 02:55:37;;;;;;;13.98;5.80;;;;;;;20.00;71.21;100765.75;1865336;77;21012;-62
2021/07/16 02:58:06;;;;;;;17.98;6.30;;;;;;;20.10;71.10;100755.67;1865305;77;21623;-62
2021/07/16 03:00:37;;;;;;;18.30;5.78;;;;;;;20.19;70.96;100763.80;1865398;77;21439;-62
2021/07/16 03:03:06;;;;;;;12.45;5.92;;;;;;;20.33;70.91;100764.06;1865265;77;21095;-62
2021/07/16 03:05:37;;;;;;;16.25;6.03;;;;;;;20.48;70.25;100761.98;1865496;77;21557;-64
2021/07/16 03:08:08;;;;;;;13.98;6.45;;;;;;;20.66;69.77;100772.18;1865308;77;21193;-62
2021/07/16 03:10:39;;;;;;;15.00;5.72;;;;;;;20.78;69.09;100764.00;1865392;77;21143;-62
2021/07/16 03:13:14;;;;;;;14.13;6.28;;;;;;;20.89;68.63;100763.63;1865405;76;21106;-62
2021/07/16 03:15:43;;;;;;;16.80;6.08;;;;;;;20.99;68.40;100764.09;1865340;77;21048;-62
2021/07/16 03:18:13;;;;;;;14.83;5.62;;;;;;;21.08;68.23;100767.84;1865473;77;21035;-62
2021/07/16 03:20:44;;;;;;;15.32;6.33;;;;;;;21.16;67.98;100760.50;1865417;77;21056;-62
2021/07/16 03:23:15;;;;;;;17.55;6.08;;;;;;;21.17;67.40;100769.75;1865349;77;21118;-62
2021/07/16 03:25:44;;;;;;;15.90;6.12;;;;;;;21.15;67.49;100762.80;1865475;76;21040;-62
2021/07/16 03:28:13;;;;;;;17.10;7.03;;;;;;;21.20;67.62;100761.44;1865409;77;21129;-62
2021/07/16 03:30:42;;;;;;;15.72;6.37;;;;;;;21.36;67.62;100758.34;1843926;77;21192;-62
2021/07/16 03:33:11;;;;;;;14.98;6.35;;;;;;;21.58;67.18;100762.75;1865374;77;21440;-62
2021/07/16 03:35:40;;;;;;;17.07;6.47;;;;;;;21.77;66.81;100759.34;1865229;76;21096;-61
2021/07/16 03:38:08;;;;;;;19.25;6.95;;;;;;;21.97;66.28;100767.50;1865366;77;21499;-60
2021/07/16 03:40:37;;;;;;;21.33;6.45;;;;;;;22.09;65.32;100764.23;1865452;77;21091;-61
2021/07/16 03:43:06;;;;;;;17.37;7.05;;;;;;;22.21;65.33;100763.16;1865677;77;21040;-62
2021/07/16 03:45:35;;;;;;;15.05;6.25;;;;;;;22.40;65.14;100765.09;1865418;77;21225;-60
2021/07/16 03:48:05;;;;;;;17.82;6.80;;;;;;;22.54;64.56;100765.23;1865277;76;21447;-61
2021/07/16 03:50:33;;;;;;;17.25;7.12;;;;;;;22.60;63.99;100764.66;1865387;77;21036;-60
2021/07/16 03:53:02;;;;;;;14.68;5.92;;;;;;;22.70;64.21;100770.92;1865334;77;21067;-60
2021/07/16 03:55:31;;;;;;;21.25;6.53;;;;;;;22.86;64.12;100763.65;1865534;77;21138;-61
2021/07/16 03:58:00;;;;;;;17.23;6.50;;;;;;;23.02;63.66;100759.56;1865233;77;21059;-60
2021/07/16 04:00:30;;;;;;;23.45;6.58;;;;;;;23.17;63.42;100760.05;1865312;77;21511;-61
2021/07/16 04:03:01;;;;;;;42.75;10.98;;;;;;;23.34;63.23;100760.67;1865504;76;21027;-60
2021/07/16 04:05:31;;;;;;;17.85;7.10;;;;;;;23.54;62.75;100768.72;1865517;76;21047;-60
2021/07/16 04:08:07;;;;;;;19.65;6.70;;;;;;;23.72;62.34;100764.31;1865383;76;21484;-60
2021/07/16 04:10:38;;;;;;;18.37;6.87;;;;;;;23.92;61.74;100764.27;1865284;77;21118;-60
2021/07/16 04:13:12;;;;;;;18.25;6.35;;;;;;;24.12;61.09;100765.05;1865520;77;21126;-61
2021/07/16 04:15:44;;;;;;;23.42;6.30;;;;;;;24.35;60.45;100769.58;1865343;77;21019;-60
2021/07/16 04:18:13;;;;;;;16.57;5.90;;;;;;;24.57;59.85;100767.86;1865491;76;21498;-60
2021/07/16 04:20:42;;;;;;;14.78;5.55;;;;;;;24.83;59.28;100779.25;1865235;76;21035;-60
2021/07/16 04:23:11;;;;;;;11.78;6.00;;;;;;;24.98;58.12;100775.02;1865362;76;21039;-60
2021/07/16 04:25:40;;;;;;;18.10;5.22;;;;;;;25.13;57.27;100773.15;1865375;77;21431;-60
2021/07/16 04:28:08;;;;;;;17.62;5.83;;;;;;;25.25;56.86;100771.95;1865369;77;21076;-60
2021/07/16 04:30:37;;;;;;;13.78;5.72;;;;;;;25.49;56.67;100767.75;1865380;77;21181;-60
2021/07/16 04:33:07;;;;;;;14.07;5.35;;;;;;;25.75;55.90;100770.49;1865372;77;21122;-60
2021/07/16 04:35:35;;;;;;;14.60;6.20;;;;;;;26.00;55.50;100772.84;1865179;77;21181;-60
2021/07/16 04:38:05;;;;;;;16.67;5.47;;;;;;;26.28;54.76;100768.13;1865342;77;21042;-60
2021/07/16 04:40:34;;;;;;;17.57;5.60;;;;;;;26.56;54.07;100767.38;1865478;77;21043;-60
2021/07/16 04:43:04;;;;;;;12.33;4.90;;;;;;;26.87;52.94;100776.28;1865348;77;21016;-60
2021/07/16 04:45:37;;;;;;;15.08;5.58;;;;;;;27.11;52.18;100763.80;1865371;77;21020;-61
2021/07/16 04:48:03;;;;;;;17.00;5.28;;;;;;;27.40;51.68;100771.97;1865057;76;21079;-60
2021/07/16 04:50:32;;;;;;;10.35;4.80;;;;;;;27.68;51.45;100771.09;1865352;76;21071;-61
2021/07/16 04:55:50;;;;;;;18.30;5.00;;;;;;;28.13;50.21;100770.17;1897316;76;21068;-60
2021/07/16 04:58:18;;;;;;;18.25;4.60;;;;;;;28.29;49.90;100772.83;1897297;75;21060;-61
2021/07/16 05:00:47;;;;;;;11.95;5.12;;;;;;;28.61;49.37;100773.75;1897370;76;21028;-60
2021/07/16 05:03:16;;;;;;;21.15;5.83;;;;;;;28.90;49.18;100769.50;1897375;76;21091;-60
2021/07/16 05:05:44;;;;;;;17.40;5.08;;;;;;;29.14;48.37;100765.80;1897376;76;21040;-60
2021/07/16 05:08:13;;;;;;;18.87;5.12;;;;;;;29.32;48.20;100768.22;1897375;75;21204;-60
2021/07/16 05:10:43;;;;;;;18.02;5.20;;;;;;;29.58;47.93;100765.93;1897547;76;21048;-61
2021/07/16 05:13:12;;;;;;;22.32;5.70;;;;;;;29.89;47.11;100764.98;1897294;74;21161;-61
2021/07/16 05:15:41;;;;;;;19.17;4.62;;;;;;;30.20;46.53;100762.61;1897334;76;21117;-60
2021/07/16 05:18:09;;;;;;;16.02;4.53;;;;;;;30.53;46.34;100760.87;1897388;76;21061;-60
2021/07/16 05:20:38;;;;;;;19.12;4.70;;;;;;;30.82;45.70;100761.80;1897480;75;21044;-60
2021/07/16 05:23:07;;;;;;;16.12;5.03;;;;;;;31.10;45.62;100757.33;1897346;76;21540;-61
2021/07/16 05:25:35;;;;;;;12.03;4.45;;;;;;;31.39;44.67;100754.64;1897241;76;21055;-61
2021/07/16 05:28:04;;;;;;;20.35;5.17;;;;;;;31.65;44.32;100757.62;1897457;76;21047;-60
2021/07/16 05:30:33;;;;;;;20.95;5.42;;;;;;;31.86;43.79;100756.70;1897371;76;21584;-60
2021/07/16 05:33:02;;;;;;;22.95;5.83;;;;;;;32.12;43.69;100757.93;1897381;75;21110;-60
2021/07/16 05:35:31;;;;;;;19.17;5.28;;;;;;;32.28;42.60;100757.59;1897438;75;21150;-60
2021/07/16 05:37:59;;;;;;;15.50;4.78;;;;;;;32.54;41.83;100763.34;1897485;76;21044;-60
2021/07/16 05:40:28;;;;;;;16.42;4.90;;;;;;;32.73;41.42;100763.14;1897371;76;21032;-61
2021/07/16 05:42:57;;;;;;;19.12;5.25;;;;;;;32.83;40.41;100758.97;1897322;76;21036;-60
2021/07/16 05:45:26;;;;;;;19.57;5.55;;;;;;;33.02;40.57;100758.69;1897331;76;21060;-61
2021/07/16 05:47:58;;;;;;;17.82;5.80;;;;;;;33.22;40.43;100755.19;1897459;75;21149;-60
2021/07/16 05:50:25;;;;;;;19.15;5.95;;;;;;;33.44;39.73;100751.69;1897291;75;21037;-62
2021/07/16 05:52:54;;;;;;;27.17;6.28;;;;;;;33.66;39.23;100746.88;1897337;76;21554;-60
2021/07/16 05:55:23;;;;;;;17.82;6.35;;;;;;;33.87;39.19;100747.70;1884541;76;21089;-60
2021/07/16 05:57:52;;;;;;;19.62;6.25;;;;;;;34.05;39.98;100745.13;1876040;76;21065;-60
2021/07/16 06:00:21;;;;;;;17.48;5.33;;;;;;;34.19;38.65;100741.30;1876048;76;21065;-60
2021/07/16 06:02:50;;;;;;;20.43;5.92;;;;;;;34.15;37.47;100745.50;1876060;76;21025;-62
2021/07/16 06:05:18;;;;;;;16.48;5.85;;;;;;;34.13;37.39;100744.05;1876039;75;21147;-60
2021/07/16 06:07:47;;;;;;;20.08;6.20;;;;;;;34.28;37.36;100743.27;1876076;76;21013;-60
2021/07/16 06:10:16;;;;;;;18.27;6.50;;;;;;;34.54;37.17;100743.67;1876029;76;21065;-60
2021/07/16 06:12:45;;;;;;;23.00;6.37;;;;;;;34.67;36.74;100740.03;1876073;76;21112;-60
2021/07/16 06:15:15;;;;;;;22.05;6.12;;;;;;;34.87;37.09;100735.84;1876092;76;21491;-60
2021/07/16 06:17:43;;;;;;;19.92;5.97;;;;;;;35.11;34.78;100738.83;1875941;76;21499;-60
2021/07/16 06:20:15;;;;;;;12.50;5.40;;;;;;;35.11;34.78;100738.83;1876042;76;21545;-60
2021/07/16 06:22:44;;;;;;;18.70;5.83;;;;;;;35.10;35.12;100735.27;1876106;76;21098;-60
2021/07/16 06:25:14;;;;;;;22.40;5.97;;;;;;;35.25;34.68;100732.23;1876093;75;21037;-60
2021/07/16 06:27:43;;;;;;;12.25;5.05;;;;;;;35.35;34.31;100733.08;1876044;76;21099;-60
2021/07/16 06:30:13;;;;;;;12.82;4.92;;;;;;;35.55;34.90;100732.36;1875961;76;21057;-60
2021/07/16 06:32:42;;;;;;;18.17;6.33;;;;;;;35.79;34.35;100729.84;1876140;76;21033;-60
2021/07/16 06:35:11;;;;;;;21.23;6.17;;;;;;;36.05;34.38;100725.95;1876162;76;21053;-60
2021/07/16 06:37:40;;;;;;;19.37;6.08;;;;;;;36.23;34.41;100725.69;1876125;76;21107;-60
2021/07/16 06:40:10;;;;;;;21.20;4.85;;;;;;;36.52;33.61;100722.12;1876026;76;21052;-61
2021/07/16 06:42:39;;;;;;;18.60;5.10;;;;;;;36.77;32.21;100722.52;1876014;76;21017;-60
2021/07/16 06:45:08;;;;;;;20.77;5.33;;;;;;;36.81;31.54;100726.45;1875986;75;21037;-60
2021/07/16 06:47:36;;;;;;;22.77;5.33;;;;;;;36.88;32.31;100724.45;1876020;76;21171;-60
2021/07/16 06:50:06;;;;;;;16.07;5.03;;;;;;;36.98;31.14;100721.16;1876037;76;21088;-60
2021/07/16 06:52:35;;;;;;;26.65;5.50;;;;;;;36.97;30.86;100715.36;1876114;76;21084;-60
2021/07/16 06:55:04;;;;;;;22.77;5.55;;;;;;;37.02;30.34;100713.26;1875815;75;21068;-61
2021/07/16 06:57:33;;;;;;;21.73;5.10;;;;;;;37.23;30.93;100713.28;1875714;76;21179;-60
2021/07/16 07:00:02;;;;;;;24.92;6.47;;;;;;;37.36;29.77;100713.58;1875852;76;21045;-61
2021/07/16 07:02:30;;;;;;;25.55;5.70;;;;;;;37.44;30.54;100710.46;1875715;76;21032;-60
2021/07/16 07:04:59;;;;;;;34.10;6.37;;;;;;;37.55;30.95;100715.11;1875729;76;21033;-60
2021/07/16 07:07:28;;;;;;;16.60;4.67;;;;;;;37.72;30.72;100708.41;1875710;76;21077;-60
2021/07/16 07:09:57;;;;;;;17.15;5.53;;;;;;;37.71;29.18;100710.02;1865493;76;21176;-59
2021/07/16 07:12:26;;;;;;;33.23;5.58;;;;;;;37.48;29.47;100711.68;1863682;77;21140;-59
2021/07/16 07:14:54;;;;;;;24.60;4.80;;;;;;;37.64;29.22;100707.38;1863548;77;21026;-59
2021/07/16 07:17:23;;;;;;;38.48;5.97;;;;;;;37.80;29.54;100708.56;1863534;77;21123;-60
2021/07/16 07:19:52;;;;;;;24.72;5.28;;;;;;;37.83;29.42;100710.81;1863561;77;21045;-59
2021/07/16 07:22:20;;;;;;;14.73;4.67;;;;;;;37.88;29.84;100710.92;1863480;77;21128;-60
2021/07/16 07:24:49;;;;;;;15.75;4.60;;;;;;;38.14;28.87;100709.56;1863564;77;21458;-59
2021/07/16 07:27:18;;;;;;;20.60;4.22;;;;;;;38.50;28.26;100708.08;1863559;77;21469;-59
2021/07/16 07:29:46;;;;;;;17.30;5.20;;;;;;;38.69;27.94;100710.92;1863517;77;21093;-59
2021/07/16 07:32:15;;;;;;;13.43;4.15;;;;;;;38.73;27.66;100707.95;1863564;77;21034;-60
2021/07/16 07:34:44;;;;;;;15.18;4.58;;;;;;;38.85;28.67;100709.83;1863492;76;21042;-61
2021/07/16 07:37:13;;;;;;;15.50;4.78;;;;;;;38.86;27.87;100709.56;1863513;77;21450;-59
2021/07/16 07:39:42;;;;;;;17.60;5.40;;;;;;;38.78;27.37;100705.30;1863648;76;21061;-59
2021/07/16 07:42:17;;;;;;;13.28;4.70;;;;;;;38.83;28.31;100701.82;1863558;76;21133;-59
2021/07/16 07:44:44;;;;;;;16.23;4.75;;;;;;;38.98;27.44;100703.44;1863429;76;21066;-59
2021/07/16 07:47:13;;;;;;;18.32;4.97;;;;;;;39.00;27.43;100708.70;1863476;77;21038;-60
2021/07/16 07:49:42;;;;;;;18.75;4.65;;;;;;;38.93;27.37;100700.60;1863599;77;21066;-59
2021/07/16 07:52:11;;;;;;;16.17;4.25;;;;;;;38.89;27.36;100698.61;1863542;77;21486;-60
2021/07/16 07:54:41;;;;;;;14.25;4.60;;;;;;;39.00;27.62;100698.55;1863734;77;21457;-60
2021/07/16 07:57:09;;;;;;;12.82;3.80;;;;;;;39.24;26.93;100696.18;1864479;76;21121;-59
2021/07/16 07:59:38;;;;;;;7.45;3.58;;;;;;;39.28;26.87;100700.09;1863672;76;21066;-60
2021/07/16 08:02:07;;;;;;;11.15;4.22;;;;;;;39.37;27.20;100692.52;1863642;77;21149;-59
2021/07/16 08:04:36;;;;;;;12.82;3.85;;;;;;;39.30;26.35;100697.36;1863689;77;21062;-59
2021/07/16 08:07:05;;;;;;;13.38;3.87;;;;;;;39.34;26.92;100695.80;1863693;77;21108;-60
2021/07/16 08:09:34;;;;;;;11.08;3.77;;;;;;;39.39;26.41;100693.64;1863778;77;21034;-60
2021/07/16 08:12:04;;;;;;;7.72;3.27;;;;;;;39.67;26.30;100696.81;1863675;76;21124;-59
2021/07/16 08:14:33;;;;;;;11.78;4.20;;;;;;;39.83;26.16;100696.48;1863699;76;21187;-59
2021/07/16 08:17:02;;;;;;;12.25;3.87;;;;;;;39.94;26.57;100699.68;1863547;77;21042;-59
2021/07/16 08:19:30;;;;;;;16.00;4.17;;;;;;;40.07;25.94;100697.63;1863559;77;21042;-59
2021/07/16 08:21:59;;;;;;;9.70;3.90;;;;;;;39.98;26.34;100691.73;1863577;77;21152;-59
2021/07/16 08:24:28;;;;;;;16.00;4.28;;;;;;;40.10;26.46;100688.83;1863596;77;21075;-60
2021/07/16 08:26:57;;;;;;;16.12;4.05;;;;;;;40.06;26.14;100684.92;1863468;76;21654;-60
2021/07/16 08:29:25;;;;;;;12.65;3.90;;;;;;;40.03;25.90;100688.22;1863589;77;21050;-60
2021/07/16 08:31:54;;;;;;;12.37;3.95;;;;;;;40.07;26.06;100675.58;1863693;76;21053;-59
2021/07/16 08:34:22;;;;;;;16.20;4.30;;;;;;;40.01;26.22;100669.70;1863702;77;21050;-59
2021/07/16 08:36:51;;;;;;;11.38;3.70;;;;;;;39.99;26.54;100671.36;1863519;77;21062;-60
2021/07/16 08:39:20;;;;;;;17.27;4.33;;;;;;;40.22;26.04;100670.78;1863460;77;21046;-61
2021/07/16 08:41:51;;;;;;;14.33;3.50;;;;;;;40.42;25.83;100676.53;1863542;76;21046;-59
2021/07/16 08:44:21;;;;;;;18.40;4.40;;;;;;;40.59;25.36;100676.41;1863699;77;21089;-59
2021/07/16 08:46:50;;;;;;;15.88;3.45;;;;;;;40.63;24.80;100673.41;1863690;76;21519;-60
2021/07/16 08:49:19;;;;;;;15.18;3.77;;;;;;;40.72;24.60;100673.21;1863571;76;21434;-59
2021/07/16 08:51:49;;;;;;;9.90;3.22;;;;;;;40.59;24.54;100677.80;1863585;76;21132;-60
2021/07/16 08:54:19;;;;;;;14.58;3.60;;;;;;;40.45;24.03;100682.06;1863546;77;21598;-60
2021/07/16 08:56:47;;;;;;;13.30;3.75;;;;;;;40.43;24.19;100674.59;1870216;76;21605;-59
2021/07/16 08:59:17;;;;;;;6.97;2.87;;;;;;;40.55;24.52;100675.28;1894585;75;21124;-60
2021/07/16 09:01:46;;;;;;;15.75;3.22;;;;;;;40.45;24.07;100679.30;1894470;76;21032;-59
2021/07/16 09:04:15;;;;;;;16.65;4.10;;;;;;;40.23;23.18;100666.39;1894427;76;21573;-60
2021/07/16 09:06:49;;;;;;;11.93;3.58;;;;;;;40.28;24.35;100666.41;1894404;75;21104;-60
2021/07/16 09:09:31;;;;;;;12.35;4.30;;;;;;;40.27;24.61;100664.77;1894581;76;21076;-60
2021/07/16 09:11:59;;;;;;;13.30;3.80;;;;;;;40.29;24.71;100670.85;1894188;75;21162;-60
2021/07/16 09:14:32;;;;;;;9.15;3.22;;;;;;;40.28;25.03;100666.41;1894442;76;21166;-59
2021/07/16 09:17:07;;;;;;;9.85;3.15;;;;;;;40.49;24.54;100663.92;1894343;76;21069;-60
2021/07/16 09:19:41;;;;;;;9.98;3.45;;;;;;;40.55;24.41;100664.80;1894562;74;21074;-59
2021/07/16 09:22:22;;;;;;;6.58;3.35;;;;;;;40.32;23.75;100668.11;1894156;75;21115;-60
2021/07/16 09:25:03;;;;;;;11.22;3.52;;;;;;;40.09;23.61;100668.70;1894459;74;21126;-60
2021/07/16 09:27:45;;;;;;;9.43;3.72;;;;;;;39.97;23.98;100661.66;1894504;76;21120;-59
2021/07/16 09:30:27;;;;;;;12.93;3.35;;;;;;;39.82;24.54;100667.23;1894459;76;21109;-59
2021/07/16 09:32:58;;;;;;;7.67;3.20;;;;;;;39.82;24.80;100658.97;1894729;76;21060;-60
2021/07/16 09:35:38;;;;;;;10.68;3.75;;;;;;;39.83;24.71;100660.66;1894706;76;21009;-59
2021/07/16 09:38:17;;;;;;;19.62;3.80;;;;;;;39.93;24.75;100656.69;1894483;76;21033;-59
2021/07/16 09:40:55;;;;;;;13.05;3.90;;;;;;;39.93;24.67;100655.30;1894446;76;21033;-59
2021/07/16 09:43:23;;;;;;;13.15;3.75;;;;;;;39.94;25.03;100652.82;1893314;75;21095;-60
2021/07/16 09:46:03;;;;;;;8.65;2.80;;;;;;;40.14;25.34;100652.77;1894653;74;21049;-60
2021/07/16 09:48:41;;;;;;;14.20;4.20;;;;;;;40.28;25.03;100651.25;1835083;78;21111;-59
2021/07/16 09:51:23;;;;;;;11.75;3.22;;;;;;;40.17;25.24;100652.79;1834790;78;21064;-60
2021/07/16 09:54:06;;;;;;;11.83;3.85;;;;;;;40.17;25.17;100652.23;1836483;78;21054;-59
2021/07/16 09:56:36;;;;;;;7.37;3.10;;;;;;;40.20;24.94;100646.21;1867602;75;21030;-59
2021/07/16 09:59:21;;;;;;;10.10;3.87;;;;;;;40.18;24.69;100642.89;1826146;77;21160;-60
2021/07/16 10:01:50;;;;;;;12.00;3.55;;;;;;;40.13;24.69;100642.83;1786976;79;21061;-59
2021/07/16 10:04:32;;;;;;;12.58;3.50;;;;;;;39.97;24.49;100639.61;1788138;80;21064;-59
2021/07/16 10:06:56;;;;;;;10.48;3.50;;;;;;;39.69;24.51;100639.52;1816525;79;21505;-60
2021/07/16 10:09:25;;;;;;;11.55;3.20;;;;;;;39.49;25.17;100631.00;1811444;79;21027;-59
2021/07/16 10:11:58;;;;;;;8.40;3.50;;;;;;;39.50;24.97;100630.75;1811510;78;21588;-59
2021/07/16 10:14:27;;;;;;;10.68;3.27;;;;;;;39.40;24.42;100630.59;1811595;79;21105;-59
2021/07/16 10:16:55;;;;;;;8.00;3.33;;;;;;;39.42;24.58;100624.81;1811425;79;21161;-59
2021/07/16 10:19:24;;;;;;;9.38;3.30;;;;;;;39.26;24.47;100623.78;1811434;79;21059;-62
2021/07/16 10:21:53;;;;;;;10.25;3.47;;;;;;;39.30;24.71;100627.69;1811438;79;21067;-60
2021/07/16 10:24:26;;;;;;;9.75;3.35;;;;;;;39.28;24.60;100618.85;1811521;78;21047;-59
2021/07/16 10:26:56;;;;;;;16.10;3.92;;;;;;;39.04;24.41;100619.05;1811318;79;21023;-60
2021/07/16 10:29:42;;;;;;;11.08;3.33;;;;;;;38.85;24.41;100620.40;1811522;79;21034;-60
2021/07/16 10:32:11;;;;;;;9.20;4.17;;;;;;;38.72;24.30;100612.76;1810403;79;21066;-60
2021/07/16 10:34:40;;;;;;;15.70;3.45;;;;;;;38.81;25.15;100609.87;1811409;78;21521;-60
2021/07/16 10:37:13;;;;;;;13.55;3.35;;;;;;;38.85;25.27;100612.14;1811396;79;21027;-60
2021/07/16 10:39:48;;;;;;;8.63;3.22;;;;;;;38.90;25.29;100609.45;1811406;79;21525;-59
2021/07/16 10:42:34;;;;;;;12.47;3.55;;;;;;;38.86;24.88;100608.28;1811373;79;21450;-60
2021/07/16 10:45:04;;;;;;;12.60;4.15;;;;;;;38.79;26.08;100599.67;1811566;79;21043;-59
2021/07/16 10:47:43;;;;;;;10.77;3.30;;;;;;;38.82;26.62;100601.08;1811773;79;21521;-59
2021/07/16 10:50:21;;;;;;;10.88;3.52;;;;;;;38.95;26.37;100598.52;1823250;79;21168;-60
2021/07/16 10:52:53;;;;;;;11.60;3.58;;;;;;;38.93;25.75;100598.77;1816883;78;21156;-60
2021/07/16 10:55:35;;;;;;;9.68;3.20;;;;;;;38.76;25.60;100598.78;1823120;79;21490;-59
2021/07/16 10:58:21;;;;;;;10.90;3.65;;;;;;;38.53;25.18;100595.64;1822207;79;21120;-60
2021/07/16 11:01:06;;;;;;;10.32;3.30;;;;;;;38.15;24.96;100597.17;1823236;77;21094;-59
2021/07/16 11:03:40;;;;;;;9.15;3.25;;;;;;;37.85;25.62;100595.48;1823241;79;21042;-60
2021/07/16 11:06:11;;;;;;;10.85;2.83;;;;;;;37.68;26.91;100593.19;1822876;78;21137;-59
2021/07/16 11:08:42;;;;;;;8.65;3.50;;;;;;;37.57;26.59;100594.03;1823222;79;21047;-60
2021/07/16 11:11:16;;;;;;;11.75;3.35;;;;;;;37.40;26.51;100599.45;1823261;78;21042;-60
2021/07/16 11:13:50;;;;;;;10.40;3.17;;;;;;;37.35;26.39;100597.44;1823060;78;21113;-59
2021/07/16 11:16:25;;;;;;;11.10;3.27;;;;;;;37.30;26.13;100591.83;1822841;78;21054;-60
2021/07/16 11:19:03;;;;;;;8.63;3.37;;;;;;;37.23;26.40;100589.20;1823289;79;21571;-59
2021/07/16 11:21:46;;;;;;;6.22;3.15;;;;;;;37.08;26.17;100586.09;1823092;78;21082;-60
2021/07/16 11:24:32;;;;;;;9.53;4.20;;;;;;;36.86;26.03;100588.59;1823124;79;21658;-60
2021/07/16 11:27:02;;;;;;;13.95;3.20;;;;;;;36.74;25.88;100587.20;1822646;79;21070;-59
2021/07/16 11:29:40;;;;;;;12.33;3.45;;;;;;;36.68;25.77;100583.50;1823078;79;21149;-59
2021/07/16 11:32:29;;;;;;;10.30;3.30;;;;;;;36.69;26.22;100582.98;1823405;79;21249;-60
2021/07/16 11:34:57;;;;;;;9.35;3.30;;;;;;;36.71;26.20;100580.84;1822237;78;21058;-60